Terminal Aerodrome Forecast
Issued by NWS Los Angeles, CA

Home | Current Version | Previous Version | Text Only | Print | Product List | Glossary On
Versions: 1 2 3 4 5 6 7 8 9 10 11 12 13 14 15 16 17 18
642
FTUS46 KLOX 121731
TAFSMX
TAF
KSMX 121731Z 1218/1318 VRB03KT P6SM BKN200
     FM122100 32010KT P6SM BKN200
     FM130100 VRB03KT P6SM BKN250
     FM130800 VRB03KT 5SM HZ BKN250
     FM131100 VRB03KT 3SM BR BKN250
     FM131600 VRB03KT 6SM HZ BKN250=

USA.gov is the U.S. government's official web portal to all federal, state and local government web resources and services.